createdAt,value
2022-08-26T00:02:40.626Z,97.24
2022-08-26T00:07:43.627Z,96.92
2022-08-26T00:12:45.345Z,97.35
2022-08-26T00:17:48.442Z,98.07
2022-08-26T00:22:50.031Z,98.96
2022-08-26T00:27:52.237Z,99.02
2022-08-26T00:32:54.954Z,98.64
2022-08-26T00:37:57.912Z,99.33
2022-08-26T00:43:00.791Z,99.75
2022-08-26T00:48:03.847Z,99.50
2022-08-26T00:53:21.484Z,99.74
2022-08-26T00:58:28.055Z,98.74
2022-08-26T01:03:31.383Z,98.50
2022-08-26T01:08:33.054Z,99.38
2022-08-26T01:13:36.496Z,99.34
2022-08-26T01:18:43.303Z,100.00
2022-08-26T01:23:48.552Z,100.00
2022-08-26T01:28:52.049Z,100.00
2022-08-26T01:34:07.265Z,100.00
2022-08-26T01:39:11.562Z,100.00
2022-08-26T01:44:20.545Z,100.00
2022-08-26T01:49:23.202Z,100.00
2022-08-26T01:54:27.814Z,100.00
2022-08-26T01:59:29.898Z,100.00
2022-08-26T02:04:37.402Z,100.00
2022-08-26T02:09:41.209Z,100.00
2022-08-26T02:14:47.164Z,100.00
2022-08-26T02:19:51.175Z,100.00
2022-08-26T02:24:56.461Z,100.00
2022-08-26T02:30:22.158Z,100.00
2022-08-26T02:35:24.194Z,100.00
2022-08-26T02:40:30.345Z,100.00
2022-08-26T02:45:33.350Z,100.00
2022-08-26T02:50:35.625Z,100.00
2022-08-26T02:55:37.344Z,100.00
2022-08-26T03:00:39.821Z,100.00
2022-08-26T03:05:54.946Z,100.00
2022-08-26T03:10:56.484Z,100.00
2022-08-26T03:15:58.142Z,100.00
2022-08-26T03:21:07.977Z,100.00
2022-08-26T03:26:11.025Z,100.00
2022-08-26T03:31:12.664Z,100.00
2022-08-26T03:36:15.356Z,100.00
2022-08-26T03:41:18.008Z,100.00
2022-08-26T03:46:20.599Z,100.00
2022-08-26T03:51:22.621Z,100.00
2022-08-26T03:56:26.208Z,100.00
2022-08-26T04:01:28.648Z,100.00
2022-08-26T04:06:33.307Z,100.00
2022-08-26T04:11:37.806Z,100.00
2022-08-26T04:16:41.943Z,100.00
2022-08-26T04:21:46.381Z,100.00
2022-08-26T04:26:48.784Z,100.00
2022-08-26T04:31:50.389Z,100.00
2022-08-26T04:36:58.066Z,100.00
2022-08-26T04:42:00.159Z,100.00
2022-08-26T04:47:04.688Z,100.00
2022-08-26T04:52:06.302Z,100.00
2022-08-26T04:57:09.330Z,98.52
2022-08-26T05:02:11.484Z,99.26
2022-08-26T05:07:13.075Z,100.00
2022-08-26T05:12:14.683Z,99.17
2022-08-26T05:17:18.008Z,99.18
2022-08-26T05:22:20.161Z,99.48
2022-08-26T05:27:22.065Z,99.39
2022-08-26T05:32:23.642Z,98.89
2022-08-26T05:37:25.328Z,98.29
2022-08-26T05:42:27.094Z,97.44
2022-08-26T05:47:29.959Z,97.63
2022-08-26T05:52:33.095Z,97.01
2022-08-26T05:57:39.938Z,96.20
2022-08-26T06:02:43.803Z,95.31
2022-08-26T06:08:08.699Z,94.03
2022-08-26T06:13:12.285Z,95.03
2022-08-26T06:18:15.581Z,94.66
2022-08-26T06:23:36.947Z,94.15
2022-08-26T06:28:43.664Z,94.24
2022-08-26T06:33:47.211Z,93.27
2022-08-26T06:38:50.187Z,92.64
2022-08-26T06:43:52.352Z,91.21
2022-08-26T06:48:55.059Z,90.86
2022-08-26T06:53:59.523Z,89.94
2022-08-26T06:59:01.741Z,89.35
2022-08-26T07:04:10.475Z,89.53
2022-08-26T07:09:12.353Z,89.38
2022-08-26T07:14:16.411Z,89.92
2022-08-26T07:19:27.579Z,90.23
2022-08-26T07:24:35.421Z,88.78
2022-08-26T07:29:39.533Z,89.18
2022-08-26T07:34:41.849Z,87.48
2022-08-26T07:39:44.290Z,87.75
2022-08-26T07:44:45.928Z,87.04
2022-08-26T07:49:47.461Z,86.28
2022-08-26T07:54:56.097Z,85.39
2022-08-26T07:59:58.337Z,85.82
2022-08-26T08:04:59.908Z,85.70
2022-08-26T08:10:01.577Z,85.13
2022-08-26T08:15:03.493Z,85.48
2022-08-26T08:20:06.869Z,84.35
2022-08-26T08:25:10.572Z,84.86
2022-08-26T08:30:14.072Z,83.93
2022-08-26T08:35:18.121Z,84.28
2022-08-26T08:40:20.851Z,83.60
2022-08-26T08:45:36.604Z,83.36
2022-08-26T08:50:47.698Z,83.74
2022-08-26T08:56:17.090Z,82.99
2022-08-26T09:01:31.177Z,82.45
2022-08-26T09:06:36.830Z,82.39
2022-08-26T09:11:43.361Z,80.06
2022-08-26T09:16:45.123Z,79.24
2022-08-26T09:21:55.505Z,80.73
2022-08-26T09:26:59.317Z,80.91
2022-08-26T09:32:24.189Z,80.62
2022-08-26T09:37:35.549Z,80.78
2022-08-26T09:42:37.199Z,80.78
2022-08-26T09:47:48.083Z,81.00
2022-08-26T09:53:28.723Z,80.36
2022-08-26T09:58:35.419Z,80.84
2022-08-26T10:03:39.650Z,80.30
2022-08-26T10:08:47.462Z,81.45
2022-08-26T10:13:58.618Z,80.95
2022-08-26T10:19:08.645Z,82.64
2022-08-26T10:24:11.522Z,82.95
2022-08-26T10:29:20.971Z,83.37
2022-08-26T10:34:24.282Z,83.35
2022-08-26T10:39:31.888Z,81.65
2022-08-26T10:44:35.064Z,80.86
2022-08-26T10:49:37.313Z,80.89
2022-08-26T10:54:46.834Z,82.06
2022-08-26T11:00:44.156Z,84.35
2022-08-26T11:05:45.881Z,83.43
2022-08-26T11:10:50.599Z,83.45
2022-08-26T11:15:52.085Z,82.58
2022-08-26T11:20:54.411Z,81.92
2022-08-26T11:25:56.050Z,81.85
2022-08-26T11:30:58.782Z,80.87
2022-08-26T11:36:00.605Z,78.13
2022-08-26T11:41:20.280Z,75.01
2022-08-26T11:46:27.315Z,71.55
2022-08-26T11:51:31.591Z,69.78
2022-08-26T11:56:34.982Z,69.19
2022-08-26T12:01:49.116Z,67.72
2022-08-26T12:06:51.664Z,66.11
2022-08-26T12:12:18.274Z,65.58
2022-08-26T12:17:27.233Z,66.46
2022-08-26T12:22:31.123Z,64.01
2022-08-26T12:27:35.437Z,64.95
2022-08-26T12:32:57.140Z,64.48
2022-08-26T12:38:00.081Z,64.37
2022-08-26T12:43:04.545Z,64.12
2022-08-26T12:48:10.458Z,63.29
2022-08-26T12:53:22.560Z,64.50
2022-08-26T12:58:34.416Z,64.48
2022-08-26T13:03:40.314Z,64.49
2022-08-26T13:08:49.343Z,62.94
2022-08-26T13:14:07.231Z,62.22
2022-08-26T13:19:12.137Z,60.21
2022-08-26T13:24:23.139Z,60.94
2022-08-26T13:29:24.696Z,61.72
2022-08-26T13:34:27.117Z,63.43
2022-08-26T13:39:28.855Z,61.99
2022-08-26T13:44:30.533Z,63.10
2022-08-26T13:49:32.739Z,62.33
2022-08-26T13:54:34.392Z,60.97
2022-08-26T13:59:36.027Z,62.68
2022-08-26T14:04:38.303Z,63.32
2022-08-26T14:09:39.929Z,62.66
2022-08-26T14:14:41.913Z,63.33
2022-08-26T14:19:45.733Z,63.58
2022-08-26T14:24:47.405Z,63.62
2022-08-26T14:29:49.072Z,64.48
2022-08-26T14:34:51.041Z,65.12
2022-08-26T14:39:52.792Z,64.87
2022-08-26T14:44:57.635Z,64.87
2022-08-26T14:49:59.246Z,64.04
2022-08-26T14:55:00.871Z,63.78
2022-08-26T15:00:02.688Z,63.29
2022-08-26T15:05:05.147Z,62.81
2022-08-26T15:10:08.517Z,63.80
2022-08-26T15:15:11.446Z,63.79
2022-08-26T15:20:13.128Z,63.64
2022-08-26T15:25:15.407Z,63.54
2022-08-26T15:30:18.275Z,63.02
2022-08-26T15:35:19.873Z,62.94
2022-08-26T15:40:22.095Z,63.58
2022-08-26T15:45:25.915Z,63.59
2022-08-26T15:50:29.049Z,63.11
2022-08-26T15:55:30.646Z,62.02
2022-08-26T16:00:33.198Z,64.05
2022-08-26T16:05:39.243Z,64.72
2022-08-26T16:10:49.208Z,64.98
2022-08-26T16:15:52.826Z,64.10
2022-08-26T16:21:08.818Z,64.12
2022-08-26T16:26:19.206Z,65.15
2022-08-26T16:31:21.600Z,65.19
2022-08-26T16:36:23.314Z,65.31
2022-08-26T16:41:28.355Z,65.45
2022-08-26T16:46:30.215Z,66.70
2022-08-26T16:51:32.530Z,67.76
2022-08-26T16:56:39.576Z,68.58
2022-08-26T17:01:41.238Z,68.92
2022-08-26T17:06:42.961Z,68.79
2022-08-26T17:11:44.681Z,68.74
2022-08-26T17:16:46.951Z,68.79
2022-08-26T17:21:48.804Z,69.69
2022-08-26T17:26:55.526Z,70.57
2022-08-26T17:31:57.367Z,71.17
2022-08-26T17:36:59.430Z,72.74
2022-08-26T17:42:01.027Z,73.04
2022-08-26T17:47:02.575Z,73.57
2022-08-26T17:52:07.479Z,74.08
2022-08-26T17:57:12.592Z,74.94
2022-08-26T18:02:14.186Z,75.58
2022-08-26T18:07:16.653Z,75.77
2022-08-26T18:12:18.257Z,75.48
2022-08-26T18:17:19.944Z,74.80
2022-08-26T18:22:23.169Z,74.47
2022-08-26T18:27:24.737Z,75.03
2022-08-26T18:32:26.345Z,75.08
2022-08-26T18:37:30.949Z,75.65
2022-08-26T18:42:33.610Z,75.44
2022-08-26T18:47:35.447Z,75.91
2022-08-26T18:52:37.164Z,76.20
2022-08-26T18:57:38.755Z,76.19
2022-08-26T19:02:40.344Z,76.49
2022-08-26T19:07:42.518Z,76.96
2022-08-26T19:12:47.274Z,77.37
2022-08-26T19:17:53.771Z,77.27
2022-08-26T19:22:57.421Z,77.78
2022-08-26T19:28:01.234Z,78.09
2022-08-26T19:33:05.218Z,78.14
2022-08-26T19:38:07.794Z,77.90
2022-08-26T19:43:10.628Z,77.14
2022-08-26T19:48:13.721Z,76.69
2022-08-26T19:53:15.425Z,77.71
2022-08-26T19:58:17.000Z,78.86
2022-08-26T20:03:18.583Z,77.99
2022-08-26T20:08:22.565Z,77.52
2022-08-26T20:13:24.346Z,78.09
2022-08-26T20:18:44.408Z,78.15
2022-08-26T20:23:45.987Z,79.59
2022-08-26T20:28:47.678Z,79.05
2022-08-26T20:33:52.834Z,78.93
2022-08-26T20:38:55.200Z,78.22
2022-08-26T20:43:57.418Z,77.92
2022-08-26T20:48:58.998Z,78.33
2022-08-26T20:54:02.330Z,78.75
2022-08-26T20:59:05.450Z,78.87
2022-08-26T21:04:09.892Z,79.80
2022-08-26T21:09:12.792Z,80.44
2022-08-26T21:14:17.289Z,81.02
2022-08-26T21:19:19.146Z,82.75
2022-08-26T21:24:21.321Z,84.79
2022-08-26T21:29:23.254Z,85.17
2022-08-26T21:34:24.924Z,86.02
2022-08-26T21:39:26.547Z,87.58
2022-08-26T21:44:28.195Z,87.20
2022-08-26T21:49:29.775Z,87.93
2022-08-26T21:54:32.036Z,87.31
2022-08-26T21:59:33.797Z,87.03
2022-08-26T22:04:35.818Z,88.86
2022-08-26T22:09:37.550Z,88.48
2022-08-26T22:14:40.941Z,89.17
2022-08-26T22:19:46.260Z,88.99
2022-08-26T22:24:48.357Z,90.38
2022-08-26T22:29:50.756Z,91.04
2022-08-26T22:34:52.399Z,90.13
2022-08-26T22:39:54.559Z,90.60
2022-08-26T22:44:56.225Z,91.22
2022-08-26T22:49:59.375Z,91.47
2022-08-26T22:55:00.966Z,92.25
2022-08-26T23:00:03.150Z,91.73
2022-08-26T23:05:05.298Z,91.95
2022-08-26T23:10:08.461Z,90.77
2022-08-26T23:15:11.786Z,90.23
2022-08-26T23:20:14.860Z,89.18
2022-08-26T23:25:17.109Z,89.36
2022-08-26T23:30:22.485Z,88.20
2022-08-26T23:35:24.687Z,90.35
2022-08-26T23:40:32.516Z,91.52
2022-08-26T23:45:35.013Z,91.40
2022-08-26T23:50:55.397Z,92.16
2022-08-26T23:55:57.059Z,91.78
